sensor_id;sensor_type;location;lat;lon;timestamp;P1;durP1;ratioP1;P2;durP2;ratioP2
19167;SDS011;9716;53.114;18.040;2023-05-02T00:00:01;7.72;;;3.67;;
19167;SDS011;9716;53.114;18.040;2023-05-02T00:02:50;9.70;;;3.53;;
19167;SDS011;9716;53.114;18.040;2023-05-02T00:05:20;8.60;;;3.53;;
19167;SDS011;9716;53.114;18.040;2023-05-02T00:07:50;10.68;;;3.42;;
19167;SDS011;9716;53.114;18.040;2023-05-02T00:10:18;11.73;;;2.63;;
19167;SDS011;9716;53.114;18.040;2023-05-02T00:12:47;11.20;;;3.10;;
19167;SDS011;9716;53.114;18.040;2023-05-02T00:15:15;4.45;;;2.45;;
19167;SDS011;9716;53.114;18.040;2023-05-02T00:17:43;11.15;;;3.63;;
19167;SDS011;9716;53.114;18.040;2023-05-02T00:20:12;9.65;;;3.22;;
19167;SDS011;9716;53.114;18.040;2023-05-02T00:22:42;10.05;;;2.53;;
19167;SDS011;9716;53.114;18.040;2023-05-02T00:25:10;5.20;;;2.53;;
19167;SDS011;9716;53.114;18.040;2023-05-02T00:27:41;9.23;;;3.63;;
19167;SDS011;9716;53.114;18.040;2023-05-02T00:30:12;10.00;;;3.35;;
19167;SDS011;9716;53.114;18.040;2023-05-02T00:32:41;7.60;;;3.13;;
19167;SDS011;9716;53.114;18.040;2023-05-02T00:35:10;11.73;;;3.83;;
19167;SDS011;9716;53.114;18.040;2023-05-02T00:37:38;7.97;;;3.42;;
19167;SDS011;9716;53.114;18.040;2023-05-02T00:40:08;14.45;;;4.05;;
19167;SDS011;9716;53.114;18.040;2023-05-02T00:42:37;14.68;;;3.78;;
19167;SDS011;9716;53.114;18.040;2023-05-02T00:45:06;5.43;;;2.75;;
19167;SDS011;9716;53.114;18.040;2023-05-02T00:47:35;6.97;;;2.92;;
19167;SDS011;9716;53.114;18.040;2023-05-02T00:50:04;7.68;;;3.42;;
19167;SDS011;9716;53.114;18.040;2023-05-02T00:52:33;6.40;;;3.88;;
19167;SDS011;9716;53.114;18.040;2023-05-02T00:55:02;9.93;;;4.13;;
19167;SDS011;9716;53.114;18.040;2023-05-02T00:57:33;5.57;;;3.45;;
19167;SDS011;9716;53.114;18.040;2023-05-02T01:00:01;11.20;;;3.15;;
19167;SDS011;9716;53.114;18.040;2023-05-02T01:02:34;5.75;;;2.72;;
19167;SDS011;9716;53.114;18.040;2023-05-02T01:05:13;6.80;;;3.47;;
19167;SDS011;9716;53.114;18.040;2023-05-02T01:07:58;7.03;;;3.97;;
19167;SDS011;9716;53.114;18.040;2023-05-02T01:10:37;6.60;;;3.17;;
19167;SDS011;9716;53.114;18.040;2023-05-02T01:13:19;12.75;;;2.90;;
19167;SDS011;9716;53.114;18.040;2023-05-02T01:15:49;7.55;;;4.00;;
19167;SDS011;9716;53.114;18.040;2023-05-02T01:18:20;11.57;;;3.88;;
19167;SDS011;9716;53.114;18.040;2023-05-02T01:20:52;10.02;;;3.90;;
19167;SDS011;9716;53.114;18.040;2023-05-02T01:23:28;9.48;;;3.70;;
19167;SDS011;9716;53.114;18.040;2023-05-02T01:26:12;8.80;;;2.92;;
19167;SDS011;9716;53.114;18.040;2023-05-02T01:29:00;6.18;;;3.20;;
19167;SDS011;9716;53.114;18.040;2023-05-02T01:31:30;5.35;;;3.47;;
19167;SDS011;9716;53.114;18.040;2023-05-02T01:34:01;9.18;;;3.42;;
19167;SDS011;9716;53.114;18.040;2023-05-02T01:36:33;7.95;;;3.30;;
19167;SDS011;9716;53.114;18.040;2023-05-02T01:39:03;6.07;;;3.22;;
19167;SDS011;9716;53.114;18.040;2023-05-02T01:41:34;3.45;;;2.45;;
19167;SDS011;9716;53.114;18.040;2023-05-02T01:44:05;5.50;;;3.17;;
19167;SDS011;9716;53.114;18.040;2023-05-02T01:46:37;6.47;;;3.55;;
19167;SDS011;9716;53.114;18.040;2023-05-02T01:49:10;5.22;;;3.08;;
19167;SDS011;9716;53.114;18.040;2023-05-02T01:51:39;9.73;;;2.80;;
19167;SDS011;9716;53.114;18.040;2023-05-02T01:54:12;5.03;;;3.08;;
19167;SDS011;9716;53.114;18.040;2023-05-02T01:56:43;8.32;;;2.70;;
19167;SDS011;9716;53.114;18.040;2023-05-02T01:59:15;6.63;;;2.85;;
19167;SDS011;9716;53.114;18.040;2023-05-02T02:01:45;6.38;;;3.20;;
19167;SDS011;9716;53.114;18.040;2023-05-02T02:04:18;7.93;;;3.15;;
19167;SDS011;9716;53.114;18.040;2023-05-02T02:06:49;5.40;;;3.17;;
19167;SDS011;9716;53.114;18.040;2023-05-02T02:09:22;4.82;;;2.72;;
19167;SDS011;9716;53.114;18.040;2023-05-02T02:11:51;9.38;;;3.75;;
19167;SDS011;9716;53.114;18.040;2023-05-02T02:14:32;6.13;;;3.40;;
19167;SDS011;9716;53.114;18.040;2023-05-02T02:17:04;3.80;;;2.58;;
19167;SDS011;9716;53.114;18.040;2023-05-02T02:19:38;6.72;;;3.05;;
19167;SDS011;9716;53.114;18.040;2023-05-02T02:22:08;8.00;;;3.38;;
19167;SDS011;9716;53.114;18.040;2023-05-02T02:24:40;8.23;;;3.13;;
19167;SDS011;9716;53.114;18.040;2023-05-02T02:27:10;7.32;;;3.15;;
19167;SDS011;9716;53.114;18.040;2023-05-02T02:29:39;10.73;;;2.95;;
19167;SDS011;9716;53.114;18.040;2023-05-02T02:32:08;10.52;;;3.40;;
19167;SDS011;9716;53.114;18.040;2023-05-02T02:34:36;6.90;;;3.00;;
19167;SDS011;9716;53.114;18.040;2023-05-02T02:37:06;9.07;;;2.90;;
19167;SDS011;9716;53.114;18.040;2023-05-02T02:39:43;7.20;;;3.45;;
19167;SDS011;9716;53.114;18.040;2023-05-02T02:42:24;5.03;;;2.55;;
19167;SDS011;9716;53.114;18.040;2023-05-02T02:45:01;7.13;;;3.88;;
19167;SDS011;9716;53.114;18.040;2023-05-02T02:47:39;8.15;;;3.35;;
19167;SDS011;9716;53.114;18.040;2023-05-02T02:50:13;11.88;;;3.83;;
19167;SDS011;9716;53.114;18.040;2023-05-02T02:52:47;7.80;;;3.70;;
19167;SDS011;9716;53.114;18.040;2023-05-02T02:55:23;11.32;;;4.43;;
19167;SDS011;9716;53.114;18.040;2023-05-02T02:58:03;9.40;;;3.40;;
19167;SDS011;9716;53.114;18.040;2023-05-02T03:00:43;12.98;;;3.80;;
19167;SDS011;9716;53.114;18.040;2023-05-02T03:03:13;6.00;;;3.65;;
19167;SDS011;9716;53.114;18.040;2023-05-02T03:05:42;9.63;;;3.20;;
19167;SDS011;9716;53.114;18.040;2023-05-02T03:08:11;4.25;;;2.92;;
19167;SDS011;9716;53.114;18.040;2023-05-02T03:10:40;9.68;;;3.72;;
19167;SDS011;9716;53.114;18.040;2023-05-02T03:13:10;9.68;;;3.83;;
19167;SDS011;9716;53.114;18.040;2023-05-02T03:18:46;6.20;;;3.13;;
19167;SDS011;9716;53.114;18.040;2023-05-02T03:21:14;9.68;;;2.95;;
19167;SDS011;9716;53.114;18.040;2023-05-02T03:23:42;5.50;;;3.08;;
19167;SDS011;9716;53.114;18.040;2023-05-02T03:26:11;12.07;;;3.83;;
19167;SDS011;9716;53.114;18.040;2023-05-02T03:28:39;6.47;;;3.08;;
19167;SDS011;9716;53.114;18.040;2023-05-02T03:31:08;12.27;;;3.47;;
19167;SDS011;9716;53.114;18.040;2023-05-02T03:33:36;5.47;;;3.08;;
19167;SDS011;9716;53.114;18.040;2023-05-02T03:36:06;4.80;;;2.90;;
19167;SDS011;9716;53.114;18.040;2023-05-02T03:38:35;7.93;;;3.05;;
19167;SDS011;9716;53.114;18.040;2023-05-02T03:41:03;6.57;;;3.53;;
19167;SDS011;9716;53.114;18.040;2023-05-02T03:43:32;6.90;;;2.90;;
19167;SDS011;9716;53.114;18.040;2023-05-02T03:46:03;7.55;;;3.20;;
19167;SDS011;9716;53.114;18.040;2023-05-02T03:48:33;5.40;;;3.22;;
19167;SDS011;9716;53.114;18.040;2023-05-02T03:51:02;6.10;;;3.40;;
19167;SDS011;9716;53.114;18.040;2023-05-02T03:53:34;8.18;;;2.95;;
19167;SDS011;9716;53.114;18.040;2023-05-02T03:56:03;8.38;;;3.83;;
19167;SDS011;9716;53.114;18.040;2023-05-02T03:58:33;7.90;;;3.30;;
19167;SDS011;9716;53.114;18.040;2023-05-02T04:01:02;7.13;;;3.15;;
19167;SDS011;9716;53.114;18.040;2023-05-02T04:03:31;4.35;;;2.63;;
19167;SDS011;9716;53.114;18.040;2023-05-02T04:05:59;6.88;;;3.13;;
19167;SDS011;9716;53.114;18.040;2023-05-02T04:08:29;6.07;;;3.10;;
19167;SDS011;9716;53.114;18.040;2023-05-02T04:10:58;7.45;;;3.75;;
19167;SDS011;9716;53.114;18.040;2023-05-02T04:13:27;4.93;;;3.13;;
19167;SDS011;9716;53.114;18.040;2023-05-02T04:15:55;8.65;;;3.50;;
19167;SDS011;9716;53.114;18.040;2023-05-02T04:18:25;5.18;;;2.80;;
19167;SDS011;9716;53.114;18.040;2023-05-02T04:20:53;6.32;;;3.05;;
19167;SDS011;9716;53.114;18.040;2023-05-02T04:23:22;7.55;;;3.30;;
19167;SDS011;9716;53.114;18.040;2023-05-02T04:25:50;10.00;;;3.22;;
19167;SDS011;9716;53.114;18.040;2023-05-02T04:28:21;6.05;;;2.97;;
19167;SDS011;9716;53.114;18.040;2023-05-02T04:30:50;9.68;;;5.05;;
19167;SDS011;9716;53.114;18.040;2023-05-02T04:33:19;7.10;;;3.65;;
19167;SDS011;9716;53.114;18.040;2023-05-02T04:35:47;11.40;;;4.18;;
19167;SDS011;9716;53.114;18.040;2023-05-02T04:38:16;10.32;;;3.75;;
19167;SDS011;9716;53.114;18.040;2023-05-02T04:40:44;8.20;;;4.05;;
19167;SDS011;9716;53.114;18.040;2023-05-02T04:43:13;10.07;;;4.25;;
19167;SDS011;9716;53.114;18.040;2023-05-02T04:45:43;7.38;;;3.85;;
19167;SDS011;9716;53.114;18.040;2023-05-02T04:48:12;7.80;;;3.67;;
19167;SDS011;9716;53.114;18.040;2023-05-02T04:50:40;9.68;;;3.75;;
19167;SDS011;9716;53.114;18.040;2023-05-02T04:53:08;8.95;;;3.63;;
19167;SDS011;9716;53.114;18.040;2023-05-02T04:55:37;6.97;;;3.55;;
19167;SDS011;9716;53.114;18.040;2023-05-02T04:58:06;8.45;;;3.70;;
19167;SDS011;9716;53.114;18.040;2023-05-02T05:00:34;9.82;;;4.28;;
19167;SDS011;9716;53.114;18.040;2023-05-02T05:03:05;14.00;;;4.20;;
19167;SDS011;9716;53.114;18.040;2023-05-02T05:05:33;8.88;;;4.60;;
19167;SDS011;9716;53.114;18.040;2023-05-02T05:08:02;11.45;;;4.10;;
19167;SDS011;9716;53.114;18.040;2023-05-02T05:10:31;8.07;;;4.10;;
19167;SDS011;9716;53.114;18.040;2023-05-02T05:12:59;8.95;;;3.92;;
19167;SDS011;9716;53.114;18.040;2023-05-02T05:15:28;8.27;;;4.38;;
19167;SDS011;9716;53.114;18.040;2023-05-02T05:17:57;9.05;;;4.60;;
19167;SDS011;9716;53.114;18.040;2023-05-02T05:20:27;12.00;;;4.45;;
19167;SDS011;9716;53.114;18.040;2023-05-02T05:22:55;11.77;;;4.43;;
19167;SDS011;9716;53.114;18.040;2023-05-02T05:25:24;9.60;;;3.95;;
19167;SDS011;9716;53.114;18.040;2023-05-02T05:27:53;9.63;;;4.03;;
19167;SDS011;9716;53.114;18.040;2023-05-02T05:30:22;6.65;;;3.10;;
19167;SDS011;9716;53.114;18.040;2023-05-02T05:32:51;6.05;;;3.30;;
19167;SDS011;9716;53.114;18.040;2023-05-02T05:35:19;10.20;;;4.50;;
19167;SDS011;9716;53.114;18.040;2023-05-02T05:37:49;10.00;;;4.30;;
19167;SDS011;9716;53.114;18.040;2023-05-02T05:40:17;10.02;;;4.40;;
19167;SDS011;9716;53.114;18.040;2023-05-02T05:42:47;9.93;;;3.83;;
19167;SDS011;9716;53.114;18.040;2023-05-02T05:45:15;6.55;;;3.55;;
19167;SDS011;9716;53.114;18.040;2023-05-02T05:47:45;8.20;;;3.83;;
19167;SDS011;9716;53.114;18.040;2023-05-02T05:50:14;16.73;;;4.28;;
19167;SDS011;9716;53.114;18.040;2023-05-02T05:52:42;9.32;;;3.70;;
19167;SDS011;9716;53.114;18.040;2023-05-02T05:55:12;9.85;;;3.92;;
19167;SDS011;9716;53.114;18.040;2023-05-02T05:57:41;5.07;;;3.22;;
19167;SDS011;9716;53.114;18.040;2023-05-02T06:00:09;17.75;;;3.60;;
19167;SDS011;9716;53.114;18.040;2023-05-02T06:02:39;8.52;;;3.50;;
19167;SDS011;9716;53.114;18.040;2023-05-02T06:05:07;7.15;;;3.53;;
19167;SDS011;9716;53.114;18.040;2023-05-02T06:07:36;10.45;;;3.53;;
19167;SDS011;9716;53.114;18.040;2023-05-02T06:10:05;6.28;;;3.85;;
19167;SDS011;9716;53.114;18.040;2023-05-02T06:12:36;8.98;;;4.18;;
19167;SDS011;9716;53.114;18.040;2023-05-02T06:15:05;6.85;;;3.33;;
19167;SDS011;9716;53.114;18.040;2023-05-02T06:17:34;17.63;;;5.35;;
19167;SDS011;9716;53.114;18.040;2023-05-02T06:20:02;11.98;;;3.58;;
19167;SDS011;9716;53.114;18.040;2023-05-02T06:22:32;6.72;;;2.97;;
19167;SDS011;9716;53.114;18.040;2023-05-02T06:25:00;8.23;;;3.47;;
19167;SDS011;9716;53.114;18.040;2023-05-02T06:27:31;10.13;;;3.80;;
19167;SDS011;9716;53.114;18.040;2023-05-02T06:30:00;9.80;;;3.65;;
19167;SDS011;9716;53.114;18.040;2023-05-02T06:32:30;5.40;;;3.55;;
19167;SDS011;9716;53.114;18.040;2023-05-02T06:34:58;6.22;;;3.88;;
19167;SDS011;9716;53.114;18.040;2023-05-02T06:37:31;8.88;;;3.78;;
19167;SDS011;9716;53.114;18.040;2023-05-02T06:40:01;12.70;;;4.55;;
19167;SDS011;9716;53.114;18.040;2023-05-02T06:42:30;8.85;;;3.72;;
19167;SDS011;9716;53.114;18.040;2023-05-02T06:44:58;5.55;;;3.08;;
19167;SDS011;9716;53.114;18.040;2023-05-02T06:47:28;6.40;;;3.40;;
19167;SDS011;9716;53.114;18.040;2023-05-02T06:49:56;7.82;;;3.83;;
19167;SDS011;9716;53.114;18.040;2023-05-02T06:52:26;8.10;;;3.67;;
19167;SDS011;9716;53.114;18.040;2023-05-02T06:54:55;8.02;;;3.72;;
19167;SDS011;9716;53.114;18.040;2023-05-02T06:57:23;7.10;;;3.90;;
19167;SDS011;9716;53.114;18.040;2023-05-02T06:59:52;8.13;;;3.42;;
19167;SDS011;9716;53.114;18.040;2023-05-02T07:02:22;9.57;;;3.83;;
19167;SDS011;9716;53.114;18.040;2023-05-02T07:04:50;10.18;;;4.13;;
19167;SDS011;9716;53.114;18.040;2023-05-02T07:07:19;7.78;;;3.75;;
19167;SDS011;9716;53.114;18.040;2023-05-02T07:09:47;8.57;;;4.13;;
19167;SDS011;9716;53.114;18.040;2023-05-02T07:12:16;8.07;;;3.30;;
19167;SDS011;9716;53.114;18.040;2023-05-02T07:14:44;8.15;;;3.28;;
19167;SDS011;9716;53.114;18.040;2023-05-02T07:17:13;7.82;;;3.80;;
19167;SDS011;9716;53.114;18.040;2023-05-02T07:19:43;10.27;;;4.05;;
19167;SDS011;9716;53.114;18.040;2023-05-02T07:22:12;6.90;;;3.90;;
19167;SDS011;9716;53.114;18.040;2023-05-02T07:24:41;7.38;;;3.75;;
19167;SDS011;9716;53.114;18.040;2023-05-02T07:27:10;9.70;;;4.05;;
19167;SDS011;9716;53.114;18.040;2023-05-02T07:29:39;11.93;;;4.07;;
19167;SDS011;9716;53.114;18.040;2023-05-02T07:32:08;5.05;;;3.15;;
19167;SDS011;9716;53.114;18.040;2023-05-02T07:34:37;9.77;;;4.20;;
19167;SDS011;9716;53.114;18.040;2023-05-02T07:37:07;8.73;;;3.40;;
19167;SDS011;9716;53.114;18.040;2023-05-02T07:39:35;4.28;;;2.80;;
19167;SDS011;9716;53.114;18.040;2023-05-02T07:42:03;5.13;;;3.60;;
19167;SDS011;9716;53.114;18.040;2023-05-02T07:44:32;8.07;;;3.65;;
19167;SDS011;9716;53.114;18.040;2023-05-02T07:47:01;6.25;;;3.55;;
19167;SDS011;9716;53.114;18.040;2023-05-02T07:49:30;5.57;;;3.28;;
19167;SDS011;9716;53.114;18.040;2023-05-02T07:51:58;8.82;;;3.97;;
19167;SDS011;9716;53.114;18.040;2023-05-02T07:54:28;3.95;;;2.60;;
19167;SDS011;9716;53.114;18.040;2023-05-02T07:56:57;5.78;;;2.75;;
19167;SDS011;9716;53.114;18.040;2023-05-02T07:59:28;9.43;;;3.92;;
19167;SDS011;9716;53.114;18.040;2023-05-02T08:01:57;6.50;;;3.15;;
19167;SDS011;9716;53.114;18.040;2023-05-02T08:04:26;5.75;;;3.10;;
19167;SDS011;9716;53.114;18.040;2023-05-02T08:06:55;8.52;;;3.63;;
19167;SDS011;9716;53.114;18.040;2023-05-02T08:09:23;3.92;;;2.33;;
19167;SDS011;9716;53.114;18.040;2023-05-02T08:11:54;10.63;;;3.20;;
19167;SDS011;9716;53.114;18.040;2023-05-02T08:14:22;5.78;;;3.10;;
19167;SDS011;9716;53.114;18.040;2023-05-02T08:16:50;4.57;;;2.17;;
19167;SDS011;9716;53.114;18.040;2023-05-02T08:19:19;5.55;;;2.78;;
19167;SDS011;9716;53.114;18.040;2023-05-02T08:21:47;5.50;;;2.85;;
19167;SDS011;9716;53.114;18.040;2023-05-02T08:24:16;6.78;;;4.03;;
19167;SDS011;9716;53.114;18.040;2023-05-02T08:26:44;7.88;;;2.17;;
19167;SDS011;9716;53.114;18.040;2023-05-02T08:29:14;6.85;;;2.30;;
19167;SDS011;9716;53.114;18.040;2023-05-02T08:31:42;9.15;;;2.30;;
19167;SDS011;9716;53.114;18.040;2023-05-02T08:34:11;4.32;;;2.22;;
19167;SDS011;9716;53.114;18.040;2023-05-02T08:36:39;8.77;;;2.38;;
19167;SDS011;9716;53.114;18.040;2023-05-02T08:39:08;3.65;;;2.17;;
19167;SDS011;9716;53.114;18.040;2023-05-02T08:41:37;3.40;;;1.95;;
19167;SDS011;9716;53.114;18.040;2023-05-02T08:44:06;3.53;;;1.85;;
19167;SDS011;9716;53.114;18.040;2023-05-02T08:46:36;3.97;;;2.08;;
19167;SDS011;9716;53.114;18.040;2023-05-02T08:49:09;8.45;;;2.00;;
19167;SDS011;9716;53.114;18.040;2023-05-02T08:51:38;3.20;;;1.90;;
19167;SDS011;9716;53.114;18.040;2023-05-02T08:54:08;3.88;;;2.03;;
19167;SDS011;9716;53.114;18.040;2023-05-02T08:56:37;2.53;;;1.48;;
19167;SDS011;9716;53.114;18.040;2023-05-02T08:59:06;1.92;;;1.75;;
19167;SDS011;9716;53.114;18.040;2023-05-02T09:01:36;4.78;;;1.42;;
19167;SDS011;9716;53.114;18.040;2023-05-02T09:04:06;4.20;;;2.00;;
19167;SDS011;9716;53.114;18.040;2023-05-02T09:06:34;4.05;;;1.88;;
19167;SDS011;9716;53.114;18.040;2023-05-02T09:09:03;6.47;;;1.70;;
19167;SDS011;9716;53.114;18.040;2023-05-02T09:11:31;2.45;;;1.52;;
19167;SDS011;9716;53.114;18.040;2023-05-02T09:14:00;2.20;;;1.30;;
19167;SDS011;9716;53.114;18.040;2023-05-02T09:16:30;10.07;;;2.03;;
19167;SDS011;9716;53.114;18.040;2023-05-02T09:19:06;4.10;;;1.63;;
19167;SDS011;9716;53.114;18.040;2023-05-02T09:21:36;1.63;;;1.30;;
19167;SDS011;9716;53.114;18.040;2023-05-02T09:24:14;3.85;;;1.50;;
19167;SDS011;9716;53.114;18.040;2023-05-02T09:26:55;9.07;;;1.92;;
19167;SDS011;9716;53.114;18.040;2023-05-02T09:29:25;1.73;;;0.93;;
19167;SDS011;9716;53.114;18.040;2023-05-02T09:31:57;2.97;;;1.63;;
19167;SDS011;9716;53.114;18.040;2023-05-02T09:34:26;5.38;;;1.60;;
19167;SDS011;9716;53.114;18.040;2023-05-02T09:36:55;2.63;;;1.80;;
19167;SDS011;9716;53.114;18.040;2023-05-02T09:39:24;1.85;;;1.67;;
19167;SDS011;9716;53.114;18.040;2023-05-02T09:41:55;2.05;;;1.40;;
19167;SDS011;9716;53.114;18.040;2023-05-02T09:44:24;2.53;;;1.85;;
19167;SDS011;9716;53.114;18.040;2023-05-02T09:46:55;3.55;;;1.58;;
19167;SDS011;9716;53.114;18.040;2023-05-02T09:49:41;3.58;;;1.88;;
19167;SDS011;9716;53.114;18.040;2023-05-02T09:52:13;1.75;;;1.58;;
19167;SDS011;9716;53.114;18.040;2023-05-02T09:54:42;2.40;;;1.42;;
19167;SDS011;9716;53.114;18.040;2023-05-02T09:57:12;2.97;;;1.83;;
19167;SDS011;9716;53.114;18.040;2023-05-02T09:59:51;3.25;;;1.70;;
19167;SDS011;9716;53.114;18.040;2023-05-02T10:02:20;5.07;;;1.80;;
19167;SDS011;9716;53.114;18.040;2023-05-02T10:04:51;1.48;;;1.38;;
19167;SDS011;9716;53.114;18.040;2023-05-02T10:07:24;2.85;;;1.63;;
19167;SDS011;9716;53.114;18.040;2023-05-02T10:09:53;3.83;;;1.30;;
19167;SDS011;9716;53.114;18.040;2023-05-02T10:12:25;1.98;;;1.50;;
19167;SDS011;9716;53.114;18.040;2023-05-02T10:14:56;4.45;;;1.65;;
19167;SDS011;9716;53.114;18.040;2023-05-02T10:17:29;7.78;;;1.98;;
19167;SDS011;9716;53.114;18.040;2023-05-02T10:20:00;3.60;;;1.75;;
19167;SDS011;9716;53.114;18.040;2023-05-02T10:22:32;2.45;;;1.40;;
19167;SDS011;9716;53.114;18.040;2023-05-02T10:25:01;2.20;;;1.42;;
19167;SDS011;9716;53.114;18.040;2023-05-02T10:27:31;3.15;;;1.27;;
19167;SDS011;9716;53.114;18.040;2023-05-02T10:29:59;3.35;;;1.60;;
19167;SDS011;9716;53.114;18.040;2023-05-02T10:32:30;5.65;;;1.10;;
19167;SDS011;9716;53.114;18.040;2023-05-02T10:35:03;3.33;;;1.50;;
19167;SDS011;9716;53.114;18.040;2023-05-02T10:37:33;2.22;;;1.60;;
19167;SDS011;9716;53.114;18.040;2023-05-02T10:40:05;3.25;;;1.60;;
19167;SDS011;9716;53.114;18.040;2023-05-02T10:42:38;2.38;;;1.58;;
19167;SDS011;9716;53.114;18.040;2023-05-02T10:45:10;2.28;;;1.35;;
19167;SDS011;9716;53.114;18.040;2023-05-02T10:47:40;1.88;;;1.42;;
19167;SDS011;9716;53.114;18.040;2023-05-02T10:50:10;2.75;;;1.42;;
19167;SDS011;9716;53.114;18.040;2023-05-02T10:52:38;5.65;;;1.40;;
19167;SDS011;9716;53.114;18.040;2023-05-02T10:55:14;2.47;;;1.80;;
19167;SDS011;9716;53.114;18.040;2023-05-02T11:00:50;3.65;;;1.60;;
19167;SDS011;9716;53.114;18.040;2023-05-02T11:06:22;1.33;;;1.08;;
19167;SDS011;9716;53.114;18.040;2023-05-02T11:08:50;1.67;;;1.40;;
19167;SDS011;9716;53.114;18.040;2023-05-02T11:11:36;8.25;;;1.98;;
19167;SDS011;9716;53.114;18.040;2023-05-02T11:14:06;3.53;;;1.90;;
19167;SDS011;9716;53.114;18.040;2023-05-02T11:22:58;3.17;;;1.83;;
19167;SDS011;9716;53.114;18.040;2023-05-02T11:25:48;6.03;;;2.47;;
19167;SDS011;9716;53.114;18.040;2023-05-02T11:34:22;3.45;;;2.03;;
19167;SDS011;9716;53.114;18.040;2023-05-02T11:36:52;4.43;;;1.98;;
19167;SDS011;9716;53.114;18.040;2023-05-02T11:39:22;2.20;;;1.60;;
19167;SDS011;9716;53.114;18.040;2023-05-02T11:41:50;9.93;;;1.70;;
19167;SDS011;9716;53.114;18.040;2023-05-02T11:44:20;2.25;;;1.40;;
19167;SDS011;9716;53.114;18.040;2023-05-02T11:46:49;4.07;;;1.33;;
19167;SDS011;9716;53.114;18.040;2023-05-02T11:49:17;3.35;;;1.48;;
19167;SDS011;9716;53.114;18.040;2023-05-02T11:51:46;1.60;;;1.30;;
19167;SDS011;9716;53.114;18.040;2023-05-02T11:54:17;2.15;;;1.40;;
19167;SDS011;9716;53.114;18.040;2023-05-02T11:56:48;6.78;;;1.40;;
19167;SDS011;9716;53.114;18.040;2023-05-02T11:59:16;2.08;;;1.45;;
19167;SDS011;9716;53.114;18.040;2023-05-02T12:01:48;1.40;;;1.30;;
19167;SDS011;9716;53.114;18.040;2023-05-02T12:04:19;3.67;;;1.50;;
19167;SDS011;9716;53.114;18.040;2023-05-02T12:06:55;6.05;;;1.63;;
19167;SDS011;9716;53.114;18.040;2023-05-02T12:09:24;1.30;;;0.98;;
19167;SDS011;9716;53.114;18.040;2023-05-02T12:11:54;5.07;;;1.50;;
19167;SDS011;9716;53.114;18.040;2023-05-02T12:14:26;2.05;;;1.33;;
19167;SDS011;9716;53.114;18.040;2023-05-02T12:16:57;4.65;;;1.45;;
19167;SDS011;9716;53.114;18.040;2023-05-02T12:19:25;1.42;;;1.33;;
19167;SDS011;9716;53.114;18.040;2023-05-02T12:21:54;2.80;;;1.48;;
19167;SDS011;9716;53.114;18.040;2023-05-02T12:24:23;1.80;;;1.63;;
19167;SDS011;9716;53.114;18.040;2023-05-02T12:29:40;1.90;;;1.48;;
19167;SDS011;9716;53.114;18.040;2023-05-02T12:32:09;2.03;;;1.52;;
19167;SDS011;9716;53.114;18.040;2023-05-02T12:34:38;6.68;;;1.30;;
19167;SDS011;9716;53.114;18.040;2023-05-02T12:37:08;1.50;;;1.20;;
19167;SDS011;9716;53.114;18.040;2023-05-02T12:39:37;1.85;;;1.42;;
19167;SDS011;9716;53.114;18.040;2023-05-02T12:42:08;2.10;;;1.65;;
19167;SDS011;9716;53.114;18.040;2023-05-02T12:44:40;3.30;;;1.67;;
19167;SDS011;9716;53.114;18.040;2023-05-02T12:47:09;5.68;;;2.28;;
19167;SDS011;9716;53.114;18.040;2023-05-02T12:49:48;2.80;;;1.83;;
19167;SDS011;9716;53.114;18.040;2023-05-02T12:52:19;3.75;;;1.77;;
19167;SDS011;9716;53.114;18.040;2023-05-02T12:54:48;3.45;;;2.28;;
19167;SDS011;9716;53.114;18.040;2023-05-02T12:57:21;3.50;;;1.58;;
19167;SDS011;9716;53.114;18.040;2023-05-02T12:59:54;3.75;;;2.20;;
19167;SDS011;9716;53.114;18.040;2023-05-02T13:02:23;8.10;;;2.30;;
19167;SDS011;9716;53.114;18.040;2023-05-02T13:04:51;2.25;;;1.70;;
19167;SDS011;9716;53.114;18.040;2023-05-02T13:07:20;2.15;;;1.60;;
19167;SDS011;9716;53.114;18.040;2023-05-02T13:09:48;2.65;;;1.88;;
19167;SDS011;9716;53.114;18.040;2023-05-02T13:12:17;3.20;;;2.10;;
19167;SDS011;9716;53.114;18.040;2023-05-02T13:14:45;4.85;;;1.75;;
19167;SDS011;9716;53.114;18.040;2023-05-02T13:17:15;4.38;;;2.42;;
19167;SDS011;9716;53.114;18.040;2023-05-02T13:19:43;4.03;;;2.20;;
19167;SDS011;9716;53.114;18.040;2023-05-02T13:22:26;8.55;;;2.22;;
19167;SDS011;9716;53.114;18.040;2023-05-02T13:24:54;4.03;;;2.22;;
19167;SDS011;9716;53.114;18.040;2023-05-02T13:27:23;5.70;;;2.72;;
19167;SDS011;9716;53.114;18.040;2023-05-02T13:29:52;10.13;;;1.73;;
19167;SDS011;9716;53.114;18.040;2023-05-02T13:32:26;2.85;;;1.92;;
19167;SDS011;9716;53.114;18.040;2023-05-02T13:34:55;4.88;;;2.30;;
19167;SDS011;9716;53.114;18.040;2023-05-02T13:37:23;4.53;;;2.28;;
19167;SDS011;9716;53.114;18.040;2023-05-02T13:39:52;3.13;;;1.95;;
19167;SDS011;9716;53.114;18.040;2023-05-02T13:42:20;9.05;;;2.63;;
19167;SDS011;9716;53.114;18.040;2023-05-02T13:44:49;2.70;;;2.05;;
19167;SDS011;9716;53.114;18.040;2023-05-02T13:47:17;9.00;;;2.45;;
19167;SDS011;9716;53.114;18.040;2023-05-02T13:49:48;3.38;;;1.85;;
19167;SDS011;9716;53.114;18.040;2023-05-02T13:52:17;2.50;;;2.25;;
19167;SDS011;9716;53.114;18.040;2023-05-02T13:54:45;3.80;;;2.25;;
19167;SDS011;9716;53.114;18.040;2023-05-02T13:57:17;4.90;;;2.28;;
19167;SDS011;9716;53.114;18.040;2023-05-02T13:59:45;2.63;;;1.48;;
19167;SDS011;9716;53.114;18.040;2023-05-02T14:02:14;6.68;;;2.22;;
19167;SDS011;9716;53.114;18.040;2023-05-02T14:04:43;3.08;;;1.65;;
19167;SDS011;9716;53.114;18.040;2023-05-02T14:07:16;2.58;;;1.63;;
19167;SDS011;9716;53.114;18.040;2023-05-02T14:09:44;2.85;;;1.88;;
19167;SDS011;9716;53.114;18.040;2023-05-02T14:12:13;3.63;;;1.88;;
19167;SDS011;9716;53.114;18.040;2023-05-02T14:14:41;3.47;;;1.83;;
19167;SDS011;9716;53.114;18.040;2023-05-02T14:17:10;2.20;;;1.42;;
19167;SDS011;9716;53.114;18.040;2023-05-02T14:19:38;2.70;;;1.92;;
19167;SDS011;9716;53.114;18.040;2023-05-02T14:22:07;2.83;;;1.80;;
19167;SDS011;9716;53.114;18.040;2023-05-02T14:24:37;2.00;;;1.60;;
19167;SDS011;9716;53.114;18.040;2023-05-02T14:27:05;2.10;;;1.33;;
19167;SDS011;9716;53.114;18.040;2023-05-02T14:29:38;2.55;;;1.35;;
19167;SDS011;9716;53.114;18.040;2023-05-02T14:32:07;3.30;;;1.60;;
19167;SDS011;9716;53.114;18.040;2023-05-02T14:34:35;1.58;;;1.33;;
19167;SDS011;9716;53.114;18.040;2023-05-02T14:37:04;1.23;;;1.10;;
19167;SDS011;9716;53.114;18.040;2023-05-02T14:39:34;1.55;;;1.00;;
19167;SDS011;9716;53.114;18.040;2023-05-02T14:42:04;1.38;;;1.08;;
19167;SDS011;9716;53.114;18.040;2023-05-02T14:44:33;1.58;;;0.85;;
19167;SDS011;9716;53.114;18.040;2023-05-02T14:47:02;0.90;;;0.70;;
19167;SDS011;9716;53.114;18.040;2023-05-02T14:49:31;0.70;;;0.70;;
19167;SDS011;9716;53.114;18.040;2023-05-02T14:51:59;0.80;;;0.80;;
19167;SDS011;9716;53.114;18.040;2023-05-02T14:54:28;0.80;;;0.80;;
19167;SDS011;9716;53.114;18.040;2023-05-02T14:56:57;1.20;;;0.98;;
19167;SDS011;9716;53.114;18.040;2023-05-02T14:59:28;1.02;;;0.63;;
19167;SDS011;9716;53.114;18.040;2023-05-02T15:01:57;1.30;;;1.20;;
19167;SDS011;9716;53.114;18.040;2023-05-02T15:04:26;1.15;;;0.98;;
19167;SDS011;9716;53.114;18.040;2023-05-02T15:06:55;1.55;;;0.70;;
19167;SDS011;9716;53.114;18.040;2023-05-02T15:09:24;5.00;;;1.10;;
19167;SDS011;9716;53.114;18.040;2023-05-02T15:11:52;2.15;;;0.90;;
19167;SDS011;9716;53.114;18.040;2023-05-02T15:14:21;0.90;;;0.90;;
19167;SDS011;9716;53.114;18.040;2023-05-02T15:16:51;1.52;;;0.93;;
19167;SDS011;9716;53.114;18.040;2023-05-02T15:19:20;2.05;;;1.25;;
19167;SDS011;9716;53.114;18.040;2023-05-02T15:21:51;1.23;;;0.90;;
19167;SDS011;9716;53.114;18.040;2023-05-02T15:24:22;0.75;;;0.75;;
19167;SDS011;9716;53.114;18.040;2023-05-02T15:26:51;1.95;;;1.08;;